sensor_id;sensor_type;location;lat;lon;timestamp;P1;durP1;ratioP1;P2;durP2;ratioP2
23474;SDS011;11910;52.086;21.066;2023-08-06T00:00:17;69.63;;;35.00;;
23474;SDS011;11910;52.086;21.066;2023-08-06T00:02:43;84.32;;;37.83;;
23474;SDS011;11910;52.086;21.066;2023-08-06T00:05:08;67.47;;;34.53;;
23474;SDS011;11910;52.086;21.066;2023-08-06T00:07:34;76.65;;;36.25;;
23474;SDS011;11910;52.086;21.066;2023-08-06T00:10:00;70.63;;;34.95;;
23474;SDS011;11910;52.086;21.066;2023-08-06T00:12:25;93.85;;;37.65;;
23474;SDS011;11910;52.086;21.066;2023-08-06T00:14:51;78.80;;;36.60;;
23474;SDS011;11910;52.086;21.066;2023-08-06T00:17:17;94.00;;;41.47;;
23474;SDS011;11910;52.086;21.066;2023-08-06T00:19:43;93.22;;;41.92;;
23474;SDS011;11910;52.086;21.066;2023-08-06T00:22:09;128.95;;;50.00;;
23474;SDS011;11910;52.086;21.066;2023-08-06T00:24:35;97.90;;;44.60;;
23474;SDS011;11910;52.086;21.066;2023-08-06T00:27:00;101.60;;;44.08;;
23474;SDS011;11910;52.086;21.066;2023-08-06T00:29:26;106.63;;;45.67;;
23474;SDS011;11910;52.086;21.066;2023-08-06T00:31:52;91.90;;;42.78;;
23474;SDS011;11910;52.086;21.066;2023-08-06T00:34:17;98.57;;;42.42;;
23474;SDS011;11910;52.086;21.066;2023-08-06T00:36:43;82.32;;;39.97;;
23474;SDS011;11910;52.086;21.066;2023-08-06T00:39:09;91.68;;;41.50;;
23474;SDS011;11910;52.086;21.066;2023-08-06T00:41:34;80.82;;;39.10;;
23474;SDS011;11910;52.086;21.066;2023-08-06T00:44:00;89.75;;;43.30;;
23474;SDS011;11910;52.086;21.066;2023-08-06T00:46:26;70.07;;;36.42;;
23474;SDS011;11910;52.086;21.066;2023-08-06T00:48:52;56.75;;;33.13;;
23474;SDS011;11910;52.086;21.066;2023-08-06T00:51:18;70.70;;;35.72;;
23474;SDS011;11910;52.086;21.066;2023-08-06T00:53:45;79.97;;;40.05;;
23474;SDS011;11910;52.086;21.066;2023-08-06T00:56:11;59.92;;;33.33;;
23474;SDS011;11910;52.086;21.066;2023-08-06T00:58:37;55.75;;;31.35;;
23474;SDS011;11910;52.086;21.066;2023-08-06T01:01:04;51.40;;;31.25;;
23474;SDS011;11910;52.086;21.066;2023-08-06T01:03:29;53.30;;;31.83;;
23474;SDS011;11910;52.086;21.066;2023-08-06T01:05:55;50.90;;;31.52;;
23474;SDS011;11910;52.086;21.066;2023-08-06T01:14:04;43.17;;;27.58;;
23474;SDS011;11910;52.086;21.066;2023-08-06T01:16:43;53.33;;;31.00;;
23474;SDS011;11910;52.086;21.066;2023-08-06T01:19:16;41.05;;;26.48;;
23474;SDS011;11910;52.086;21.066;2023-08-06T01:21:42;45.17;;;27.85;;
23474;SDS011;11910;52.086;21.066;2023-08-06T01:24:08;41.97;;;25.90;;
23474;SDS011;11910;52.086;21.066;2023-08-06T01:26:36;43.70;;;27.00;;
23474;SDS011;11910;52.086;21.066;2023-08-06T01:29:10;39.95;;;25.02;;
23474;SDS011;11910;52.086;21.066;2023-08-06T01:31:50;35.90;;;23.40;;
23474;SDS011;11910;52.086;21.066;2023-08-06T01:34:17;34.20;;;22.80;;
23474;SDS011;11910;52.086;21.066;2023-08-06T01:36:46;50.97;;;27.90;;
23474;SDS011;11910;52.086;21.066;2023-08-06T01:39:12;33.60;;;22.88;;
23474;SDS011;11910;52.086;21.066;2023-08-06T01:41:38;32.40;;;23.13;;
23474;SDS011;11910;52.086;21.066;2023-08-06T01:44:03;34.00;;;23.30;;
23474;SDS011;11910;52.086;21.066;2023-08-06T01:46:29;43.63;;;28.17;;
23474;SDS011;11910;52.086;21.066;2023-08-06T01:48:55;42.95;;;26.17;;
23474;SDS011;11910;52.086;21.066;2023-08-06T01:51:20;34.80;;;23.17;;
23474;SDS011;11910;52.086;21.066;2023-08-06T01:53:46;31.85;;;23.17;;
23474;SDS011;11910;52.086;21.066;2023-08-06T01:56:11;36.08;;;23.60;;
23474;SDS011;11910;52.086;21.066;2023-08-06T01:58:37;31.45;;;22.27;;
23474;SDS011;11910;52.086;21.066;2023-08-06T02:01:02;34.50;;;22.13;;
23474;SDS011;11910;52.086;21.066;2023-08-06T02:03:28;31.42;;;22.20;;
23474;SDS011;11910;52.086;21.066;2023-08-06T02:05:54;33.22;;;23.60;;
23474;SDS011;11910;52.086;21.066;2023-08-06T02:08:19;30.60;;;20.38;;
23474;SDS011;11910;52.086;21.066;2023-08-06T02:10:45;28.75;;;20.98;;
23474;SDS011;11910;52.086;21.066;2023-08-06T02:13:11;35.55;;;21.33;;
23474;SDS011;11910;52.086;21.066;2023-08-06T02:15:41;36.88;;;23.27;;
23474;SDS011;11910;52.086;21.066;2023-08-06T02:18:12;35.03;;;22.92;;
23474;SDS011;11910;52.086;21.066;2023-08-06T02:20:39;31.92;;;20.73;;
23474;SDS011;11910;52.086;21.066;2023-08-06T02:23:05;29.95;;;20.98;;
23474;SDS011;11910;52.086;21.066;2023-08-06T02:25:31;35.90;;;22.02;;
23474;SDS011;11910;52.086;21.066;2023-08-06T02:27:56;33.33;;;22.75;;
23474;SDS011;11910;52.086;21.066;2023-08-06T02:30:22;32.40;;;21.50;;
23474;SDS011;11910;52.086;21.066;2023-08-06T02:32:48;36.60;;;24.13;;
23474;SDS011;11910;52.086;21.066;2023-08-06T02:35:13;42.83;;;26.15;;
23474;SDS011;11910;52.086;21.066;2023-08-06T02:37:39;39.30;;;26.45;;
23474;SDS011;11910;52.086;21.066;2023-08-06T02:40:04;31.33;;;22.75;;
23474;SDS011;11910;52.086;21.066;2023-08-06T02:42:30;44.40;;;25.73;;
23474;SDS011;11910;52.086;21.066;2023-08-06T02:44:56;46.53;;;27.10;;
23474;SDS011;11910;52.086;21.066;2023-08-06T02:47:22;46.17;;;28.77;;
23474;SDS011;11910;52.086;21.066;2023-08-06T02:49:47;46.03;;;29.92;;
23474;SDS011;11910;52.086;21.066;2023-08-06T02:52:13;32.58;;;23.58;;
23474;SDS011;11910;52.086;21.066;2023-08-06T02:54:38;39.70;;;25.08;;
23474;SDS011;11910;52.086;21.066;2023-08-06T02:57:04;47.13;;;28.15;;
23474;SDS011;11910;52.086;21.066;2023-08-06T02:59:30;35.10;;;23.75;;
23474;SDS011;11910;52.086;21.066;2023-08-06T03:01:56;36.72;;;23.70;;
23474;SDS011;11910;52.086;21.066;2023-08-06T03:04:22;32.05;;;21.67;;
23474;SDS011;11910;52.086;21.066;2023-08-06T03:06:49;32.60;;;23.00;;
23474;SDS011;11910;52.086;21.066;2023-08-06T03:09:15;38.72;;;24.80;;
23474;SDS011;11910;52.086;21.066;2023-08-06T03:11:41;35.72;;;24.27;;
23474;SDS011;11910;52.086;21.066;2023-08-06T03:14:06;33.67;;;23.45;;
23474;SDS011;11910;52.086;21.066;2023-08-06T03:16:32;39.30;;;25.23;;
23474;SDS011;11910;52.086;21.066;2023-08-06T03:18:57;45.90;;;28.60;;
23474;SDS011;11910;52.086;21.066;2023-08-06T03:21:23;38.80;;;25.65;;
23474;SDS011;11910;52.086;21.066;2023-08-06T03:23:48;40.80;;;26.45;;
23474;SDS011;11910;52.086;21.066;2023-08-06T03:26:14;42.13;;;27.17;;
23474;SDS011;11910;52.086;21.066;2023-08-06T03:28:39;39.60;;;25.95;;
23474;SDS011;11910;52.086;21.066;2023-08-06T03:31:05;34.67;;;24.27;;
23474;SDS011;11910;52.086;21.066;2023-08-06T03:33:30;36.53;;;23.95;;
23474;SDS011;11910;52.086;21.066;2023-08-06T03:35:56;34.28;;;25.25;;
23474;SDS011;11910;52.086;21.066;2023-08-06T03:38:22;39.92;;;25.88;;
23474;SDS011;11910;52.086;21.066;2023-08-06T03:40:48;50.25;;;29.60;;
23474;SDS011;11910;52.086;21.066;2023-08-06T03:43:14;47.13;;;30.55;;
23474;SDS011;11910;52.086;21.066;2023-08-06T03:45:40;46.20;;;28.75;;
23474;SDS011;11910;52.086;21.066;2023-08-06T03:48:06;40.50;;;27.00;;
23474;SDS011;11910;52.086;21.066;2023-08-06T03:50:32;37.95;;;27.45;;
23474;SDS011;11910;52.086;21.066;2023-08-06T03:52:59;39.03;;;27.92;;
23474;SDS011;11910;52.086;21.066;2023-08-06T03:55:25;42.67;;;27.98;;
23474;SDS011;11910;52.086;21.066;2023-08-06T03:57:50;39.13;;;27.55;;
23474;SDS011;11910;52.086;21.066;2023-08-06T04:00:16;36.08;;;26.50;;
23474;SDS011;11910;52.086;21.066;2023-08-06T04:02:42;41.85;;;28.25;;
23474;SDS011;11910;52.086;21.066;2023-08-06T04:05:07;41.20;;;28.65;;
23474;SDS011;11910;52.086;21.066;2023-08-06T04:07:33;33.53;;;24.63;;
23474;SDS011;11910;52.086;21.066;2023-08-06T04:10:00;40.17;;;29.13;;
23474;SDS011;11910;52.086;21.066;2023-08-06T04:12:27;41.80;;;28.98;;
23474;SDS011;11910;52.086;21.066;2023-08-06T04:14:53;44.22;;;30.67;;
23474;SDS011;11910;52.086;21.066;2023-08-06T04:17:19;49.47;;;32.65;;
23474;SDS011;11910;52.086;21.066;2023-08-06T04:19:46;42.53;;;31.27;;
23474;SDS011;11910;52.086;21.066;2023-08-06T04:22:15;38.20;;;29.35;;
23474;SDS011;11910;52.086;21.066;2023-08-06T04:24:41;47.88;;;32.53;;
23474;SDS011;11910;52.086;21.066;2023-08-06T04:27:08;37.40;;;27.63;;
23474;SDS011;11910;52.086;21.066;2023-08-06T04:29:34;38.65;;;30.08;;
23474;SDS011;11910;52.086;21.066;2023-08-06T04:31:59;39.17;;;30.60;;
23474;SDS011;11910;52.086;21.066;2023-08-06T04:34:25;37.58;;;29.55;;
23474;SDS011;11910;52.086;21.066;2023-08-06T04:36:50;43.60;;;31.15;;
23474;SDS011;11910;52.086;21.066;2023-08-06T04:39:16;36.80;;;29.13;;
23474;SDS011;11910;52.086;21.066;2023-08-06T04:41:41;35.35;;;27.52;;
23474;SDS011;11910;52.086;21.066;2023-08-06T04:44:07;34.83;;;29.50;;
23474;SDS011;11910;52.086;21.066;2023-08-06T04:46:33;32.08;;;27.17;;
23474;SDS011;11910;52.086;21.066;2023-08-06T04:48:58;36.65;;;29.30;;
23474;SDS011;11910;52.086;21.066;2023-08-06T04:51:24;35.88;;;29.55;;
23474;SDS011;11910;52.086;21.066;2023-08-06T04:53:49;28.58;;;25.55;;
23474;SDS011;11910;52.086;21.066;2023-08-06T04:56:15;31.98;;;27.45;;
23474;SDS011;11910;52.086;21.066;2023-08-06T04:58:40;30.50;;;26.38;;
23474;SDS011;11910;52.086;21.066;2023-08-06T05:01:06;32.75;;;28.05;;
23474;SDS011;11910;52.086;21.066;2023-08-06T05:03:32;28.05;;;23.83;;
23474;SDS011;11910;52.086;21.066;2023-08-06T05:05:57;26.75;;;23.92;;
23474;SDS011;11910;52.086;21.066;2023-08-06T05:08:23;26.52;;;23.73;;
23474;SDS011;11910;52.086;21.066;2023-08-06T05:10:48;27.10;;;24.17;;
23474;SDS011;11910;52.086;21.066;2023-08-06T05:13:14;24.70;;;22.17;;
23474;SDS011;11910;52.086;21.066;2023-08-06T05:15:39;24.45;;;21.55;;
23474;SDS011;11910;52.086;21.066;2023-08-06T05:18:07;24.35;;;21.70;;
23474;SDS011;11910;52.086;21.066;2023-08-06T05:20:36;24.35;;;21.42;;
23474;SDS011;11910;52.086;21.066;2023-08-06T05:23:03;22.10;;;19.80;;
23474;SDS011;11910;52.086;21.066;2023-08-06T05:25:28;23.90;;;20.52;;
23474;SDS011;11910;52.086;21.066;2023-08-06T05:27:54;20.77;;;18.75;;
23474;SDS011;11910;52.086;21.066;2023-08-06T05:30:20;20.23;;;18.13;;
23474;SDS011;11910;52.086;21.066;2023-08-06T05:32:45;20.52;;;18.35;;
23474;SDS011;11910;52.086;21.066;2023-08-06T05:35:11;20.15;;;18.05;;
23474;SDS011;11910;52.086;21.066;2023-08-06T05:37:37;19.67;;;17.88;;
23474;SDS011;11910;52.086;21.066;2023-08-06T05:40:02;17.70;;;15.90;;
23474;SDS011;11910;52.086;21.066;2023-08-06T05:42:29;17.35;;;15.50;;
23474;SDS011;11910;52.086;21.066;2023-08-06T05:44:54;21.00;;;16.15;;
23474;SDS011;11910;52.086;21.066;2023-08-06T05:47:20;17.42;;;15.55;;
23474;SDS011;11910;52.086;21.066;2023-08-06T05:49:46;16.63;;;15.00;;
23474;SDS011;11910;52.086;21.066;2023-08-06T05:52:12;17.45;;;14.02;;
23474;SDS011;11910;52.086;21.066;2023-08-06T05:54:37;15.35;;;13.32;;
23474;SDS011;11910;52.086;21.066;2023-08-06T05:57:03;17.55;;;14.07;;
23474;SDS011;11910;52.086;21.066;2023-08-06T05:59:29;16.02;;;14.43;;
23474;SDS011;11910;52.086;21.066;2023-08-06T06:01:54;15.60;;;13.88;;
23474;SDS011;11910;52.086;21.066;2023-08-06T06:04:21;18.83;;;14.30;;
23474;SDS011;11910;52.086;21.066;2023-08-06T06:06:47;15.35;;;13.40;;
23474;SDS011;11910;52.086;21.066;2023-08-06T06:09:12;17.42;;;13.40;;
23474;SDS011;11910;52.086;21.066;2023-08-06T06:11:38;13.45;;;12.15;;
23474;SDS011;11910;52.086;21.066;2023-08-06T06:14:04;15.70;;;13.25;;
23474;SDS011;11910;52.086;21.066;2023-08-06T06:16:30;16.90;;;13.57;;
23474;SDS011;11910;52.086;21.066;2023-08-06T06:18:55;14.88;;;13.23;;
23474;SDS011;11910;52.086;21.066;2023-08-06T06:21:22;14.85;;;13.27;;
23474;SDS011;11910;52.086;21.066;2023-08-06T06:23:48;16.33;;;12.13;;
23474;SDS011;11910;52.086;21.066;2023-08-06T06:26:14;15.20;;;13.20;;
23474;SDS011;11910;52.086;21.066;2023-08-06T06:28:39;15.07;;;12.88;;
23474;SDS011;11910;52.086;21.066;2023-08-06T06:31:05;16.60;;;12.23;;
23474;SDS011;11910;52.086;21.066;2023-08-06T06:33:31;16.75;;;11.57;;
23474;SDS011;11910;52.086;21.066;2023-08-06T06:35:56;14.52;;;11.98;;
23474;SDS011;11910;52.086;21.066;2023-08-06T06:38:22;14.07;;;12.18;;
23474;SDS011;11910;52.086;21.066;2023-08-06T06:40:56;15.32;;;11.95;;
23474;SDS011;11910;52.086;21.066;2023-08-06T06:43:22;20.58;;;12.25;;
23474;SDS011;11910;52.086;21.066;2023-08-06T06:45:52;18.38;;;12.10;;
23474;SDS011;11910;52.086;21.066;2023-08-06T06:48:19;16.42;;;11.68;;
23474;SDS011;11910;52.086;21.066;2023-08-06T06:50:47;17.08;;;11.68;;
23474;SDS011;11910;52.086;21.066;2023-08-06T06:53:13;13.43;;;11.70;;
23474;SDS011;11910;52.086;21.066;2023-08-06T06:55:39;15.27;;;11.93;;
23474;SDS011;11910;52.086;21.066;2023-08-06T06:58:04;12.77;;;11.10;;
23474;SDS011;11910;52.086;21.066;2023-08-06T07:00:30;14.77;;;11.50;;
23474;SDS011;11910;52.086;21.066;2023-08-06T07:02:56;15.00;;;10.68;;
23474;SDS011;11910;52.086;21.066;2023-08-06T07:05:22;16.17;;;11.20;;
23474;SDS011;11910;52.086;21.066;2023-08-06T07:07:47;16.17;;;11.50;;
23474;SDS011;11910;52.086;21.066;2023-08-06T07:10:13;12.43;;;10.88;;
23474;SDS011;11910;52.086;21.066;2023-08-06T07:12:39;17.98;;;11.18;;
23474;SDS011;11910;52.086;21.066;2023-08-06T07:15:06;15.48;;;10.95;;
23474;SDS011;11910;52.086;21.066;2023-08-06T07:17:32;13.43;;;11.40;;
23474;SDS011;11910;52.086;21.066;2023-08-06T07:19:58;14.50;;;11.02;;
23474;SDS011;11910;52.086;21.066;2023-08-06T07:22:23;13.40;;;10.55;;
23474;SDS011;11910;52.086;21.066;2023-08-06T07:24:49;15.73;;;11.80;;
23474;SDS011;11910;52.086;21.066;2023-08-06T07:27:17;19.42;;;11.60;;
23474;SDS011;11910;52.086;21.066;2023-08-06T07:29:43;17.25;;;11.45;;
23474;SDS011;11910;52.086;21.066;2023-08-06T07:32:09;18.63;;;11.50;;
23474;SDS011;11910;52.086;21.066;2023-08-06T07:34:35;14.80;;;10.82;;
23474;SDS011;11910;52.086;21.066;2023-08-06T07:37:01;20.55;;;11.02;;
23474;SDS011;11910;52.086;21.066;2023-08-06T07:39:26;14.65;;;11.13;;
23474;SDS011;11910;52.086;21.066;2023-08-06T07:41:53;16.10;;;10.63;;
23474;SDS011;11910;52.086;21.066;2023-08-06T07:44:19;13.07;;;10.63;;
23474;SDS011;11910;52.086;21.066;2023-08-06T07:46:45;13.20;;;10.75;;
23474;SDS011;11910;52.086;21.066;2023-08-06T07:49:11;19.38;;;11.50;;
23474;SDS011;11910;52.086;21.066;2023-08-06T07:51:36;13.30;;;10.70;;
23474;SDS011;11910;52.086;21.066;2023-08-06T07:54:02;15.32;;;10.35;;
23474;SDS011;11910;52.086;21.066;2023-08-06T07:56:28;14.27;;;10.43;;
23474;SDS011;11910;52.086;21.066;2023-08-06T07:58:54;13.65;;;10.48;;
23474;SDS011;11910;52.086;21.066;2023-08-06T08:01:19;13.43;;;10.82;;
23474;SDS011;11910;52.086;21.066;2023-08-06T08:03:45;16.45;;;10.55;;
23474;SDS011;11910;52.086;21.066;2023-08-06T08:06:10;14.55;;;11.02;;
23474;SDS011;11910;52.086;21.066;2023-08-06T08:08:36;13.15;;;10.57;;
23474;SDS011;11910;52.086;21.066;2023-08-06T08:11:03;15.10;;;11.02;;
23474;SDS011;11910;52.086;21.066;2023-08-06T08:13:29;16.10;;;10.80;;
23474;SDS011;11910;52.086;21.066;2023-08-06T08:15:58;15.35;;;11.15;;
23474;SDS011;11910;52.086;21.066;2023-08-06T08:18:24;15.38;;;10.43;;
23474;SDS011;11910;52.086;21.066;2023-08-06T08:20:50;11.40;;;10.15;;
23474;SDS011;11910;52.086;21.066;2023-08-06T08:23:15;13.20;;;10.88;;
23474;SDS011;11910;52.086;21.066;2023-08-06T08:25:41;14.75;;;10.32;;
23474;SDS011;11910;52.086;21.066;2023-08-06T08:28:06;13.20;;;9.93;;
23474;SDS011;11910;52.086;21.066;2023-08-06T08:30:32;15.10;;;9.50;;
23474;SDS011;11910;52.086;21.066;2023-08-06T08:32:58;13.00;;;9.63;;
23474;SDS011;11910;52.086;21.066;2023-08-06T08:35:24;14.60;;;10.65;;
23474;SDS011;11910;52.086;21.066;2023-08-06T08:37:49;13.95;;;10.48;;
23474;SDS011;11910;52.086;21.066;2023-08-06T08:40:15;14.75;;;10.10;;
23474;SDS011;11910;52.086;21.066;2023-08-06T08:42:41;15.40;;;9.70;;
23474;SDS011;11910;52.086;21.066;2023-08-06T08:45:14;11.02;;;9.43;;
23474;SDS011;11910;52.086;21.066;2023-08-06T08:47:40;10.15;;;9.02;;
23474;SDS011;11910;52.086;21.066;2023-08-06T08:50:08;12.45;;;9.10;;
23474;SDS011;11910;52.086;21.066;2023-08-06T08:52:35;10.98;;;9.05;;
23474;SDS011;11910;52.086;21.066;2023-08-06T08:55:03;11.52;;;8.95;;
23474;SDS011;11910;52.086;21.066;2023-08-06T08:57:29;12.60;;;9.07;;
23474;SDS011;11910;52.086;21.066;2023-08-06T08:59:54;12.07;;;8.40;;
23474;SDS011;11910;52.086;21.066;2023-08-06T09:02:21;13.43;;;8.55;;
23474;SDS011;11910;52.086;21.066;2023-08-06T09:04:48;13.30;;;8.60;;
23474;SDS011;11910;52.086;21.066;2023-08-06T09:07:16;13.85;;;8.75;;
23474;SDS011;11910;52.086;21.066;2023-08-06T09:09:48;12.57;;;8.38;;
23474;SDS011;11910;52.086;21.066;2023-08-06T09:12:16;13.50;;;8.85;;
23474;SDS011;11910;52.086;21.066;2023-08-06T09:14:42;15.30;;;10.20;;
23474;SDS011;11910;52.086;21.066;2023-08-06T09:17:08;14.00;;;7.95;;
23474;SDS011;11910;52.086;21.066;2023-08-06T09:19:37;9.77;;;7.82;;
23474;SDS011;11910;52.086;21.066;2023-08-06T09:22:11;11.27;;;8.02;;
23474;SDS011;11910;52.086;21.066;2023-08-06T09:24:39;9.25;;;8.20;;
23474;SDS011;11910;52.086;21.066;2023-08-06T09:27:16;9.32;;;8.43;;
23474;SDS011;11910;52.086;21.066;2023-08-06T09:29:44;9.52;;;8.07;;
23474;SDS011;11910;52.086;21.066;2023-08-06T09:32:14;12.82;;;8.70;;
23474;SDS011;11910;52.086;21.066;2023-08-06T09:34:41;14.70;;;7.93;;
23474;SDS011;11910;52.086;21.066;2023-08-06T09:37:09;9.50;;;7.60;;
23474;SDS011;11910;52.086;21.066;2023-08-06T09:39:38;11.82;;;7.93;;
23474;SDS011;11910;52.086;21.066;2023-08-06T09:42:07;9.82;;;7.50;;
23474;SDS011;11910;52.086;21.066;2023-08-06T09:44:33;10.63;;;8.05;;
23474;SDS011;11910;52.086;21.066;2023-08-06T09:47:01;9.63;;;7.35;;
23474;SDS011;11910;52.086;21.066;2023-08-06T09:49:29;11.43;;;8.07;;
23474;SDS011;11910;52.086;21.066;2023-08-06T09:52:10;10.23;;;7.93;;
23474;SDS011;11910;52.086;21.066;2023-08-06T09:54:37;8.02;;;7.30;;
23474;SDS011;11910;52.086;21.066;2023-08-06T09:57:03;11.63;;;7.47;;
23474;SDS011;11910;52.086;21.066;2023-08-06T09:59:30;11.07;;;7.55;;
23474;SDS011;11910;52.086;21.066;2023-08-06T10:01:57;12.57;;;7.30;;
23474;SDS011;11910;52.086;21.066;2023-08-06T10:04:23;8.07;;;7.28;;
23474;SDS011;11910;52.086;21.066;2023-08-06T10:06:49;11.63;;;7.43;;
23474;SDS011;11910;52.086;21.066;2023-08-06T10:09:15;10.82;;;7.20;;
23474;SDS011;11910;52.086;21.066;2023-08-06T10:11:42;10.73;;;7.18;;
23474;SDS011;11910;52.086;21.066;2023-08-06T10:14:13;12.38;;;7.25;;
23474;SDS011;11910;52.086;21.066;2023-08-06T10:16:41;14.50;;;7.25;;
23474;SDS011;11910;52.086;21.066;2023-08-06T10:19:07;8.35;;;7.28;;
23474;SDS011;11910;52.086;21.066;2023-08-06T10:21:35;13.52;;;7.38;;
23474;SDS011;11910;52.086;21.066;2023-08-06T10:24:02;10.00;;;7.13;;
23474;SDS011;11910;52.086;21.066;2023-08-06T10:26:35;9.38;;;7.50;;
23474;SDS011;11910;52.086;21.066;2023-08-06T10:29:01;9.20;;;7.97;;
23474;SDS011;11910;52.086;21.066;2023-08-06T10:31:53;16.27;;;8.73;;
23474;SDS011;11910;52.086;21.066;2023-08-06T10:34:22;12.40;;;7.28;;
23474;SDS011;11910;52.086;21.066;2023-08-06T10:36:48;8.85;;;7.95;;
23474;SDS011;11910;52.086;21.066;2023-08-06T10:39:14;8.18;;;6.75;;
23474;SDS011;11910;52.086;21.066;2023-08-06T10:41:41;13.85;;;6.55;;
23474;SDS011;11910;52.086;21.066;2023-08-06T10:44:08;9.63;;;6.90;;
23474;SDS011;11910;52.086;21.066;2023-08-06T10:46:35;10.80;;;7.32;;
23474;SDS011;11910;52.086;21.066;2023-08-06T10:49:02;11.90;;;6.53;;
23474;SDS011;11910;52.086;21.066;2023-08-06T10:51:32;13.27;;;7.03;;
23474;SDS011;11910;52.086;21.066;2023-08-06T10:53:57;11.73;;;6.20;;
23474;SDS011;11910;52.086;21.066;2023-08-06T10:56:24;11.43;;;6.88;;
23474;SDS011;11910;52.086;21.066;2023-08-06T10:58:53;12.63;;;8.95;;
23474;SDS011;11910;52.086;21.066;2023-08-06T11:01:19;11.23;;;7.05;;
23474;SDS011;11910;52.086;21.066;2023-08-06T11:03:47;11.93;;;7.00;;
23474;SDS011;11910;52.086;21.066;2023-08-06T11:06:18;9.45;;;6.10;;
23474;SDS011;11910;52.086;21.066;2023-08-06T11:08:51;9.77;;;5.65;;
23474;SDS011;11910;52.086;21.066;2023-08-06T11:11:18;15.07;;;9.18;;
23474;SDS011;11910;52.086;21.066;2023-08-06T11:13:48;11.18;;;6.85;;
23474;SDS011;11910;52.086;21.066;2023-08-06T11:16:15;27.90;;;7.72;;
23474;SDS011;11910;52.086;21.066;2023-08-06T11:18:49;10.55;;;7.05;;
23474;SDS011;11910;52.086;21.066;2023-08-06T11:21:19;9.68;;;6.97;;
23474;SDS011;11910;52.086;21.066;2023-08-06T11:23:45;9.88;;;6.03;;
23474;SDS011;11910;52.086;21.066;2023-08-06T11:26:11;8.93;;;6.00;;
23474;SDS011;11910;52.086;21.066;2023-08-06T11:28:36;10.32;;;7.13;;
23474;SDS011;11910;52.086;21.066;2023-08-06T11:31:02;8.00;;;6.28;;
23474;SDS011;11910;52.086;21.066;2023-08-06T11:33:29;9.88;;;6.05;;
23474;SDS011;11910;52.086;21.066;2023-08-06T11:35:55;11.10;;;6.65;;
23474;SDS011;11910;52.086;21.066;2023-08-06T11:38:22;8.88;;;6.03;;
23474;SDS011;11910;52.086;21.066;2023-08-06T11:40:50;7.68;;;6.00;;
23474;SDS011;11910;52.086;21.066;2023-08-06T11:43:17;8.45;;;6.78;;
23474;SDS011;11910;52.086;21.066;2023-08-06T11:45:44;8.52;;;6.00;;
23474;SDS011;11910;52.086;21.066;2023-08-06T11:48:09;9.25;;;6.03;;
23474;SDS011;11910;52.086;21.066;2023-08-06T11:50:38;8.32;;;5.85;;
23474;SDS011;11910;52.086;21.066;2023-08-06T11:53:04;10.90;;;8.05;;
23474;SDS011;11910;52.086;21.066;2023-08-06T11:55:30;7.53;;;5.95;;
23474;SDS011;11910;52.086;21.066;2023-08-06T11:57:56;6.13;;;5.25;;
23474;SDS011;11910;52.086;21.066;2023-08-06T12:00:23;11.00;;;5.50;;
23474;SDS011;11910;52.086;21.066;2023-08-06T12:02:50;6.75;;;5.57;;
23474;SDS011;11910;52.086;21.066;2023-08-06T12:05:21;9.20;;;5.65;;
23474;SDS011;11910;52.086;21.066;2023-08-06T12:07:51;6.55;;;5.40;;
23474;SDS011;11910;52.086;21.066;2023-08-06T12:10:19;7.03;;;5.32;;
23474;SDS011;11910;52.086;21.066;2023-08-06T12:12:45;7.53;;;6.13;;
23474;SDS011;11910;52.086;21.066;2023-08-06T12:15:12;6.13;;;5.43;;
23474;SDS011;11910;52.086;21.066;2023-08-06T12:17:37;7.38;;;5.35;;
23474;SDS011;11910;52.086;21.066;2023-08-06T12:20:04;11.80;;;6.32;;
23474;SDS011;11910;52.086;21.066;2023-08-06T12:22:31;9.25;;;6.15;;
23474;SDS011;11910;52.086;21.066;2023-08-06T12:25:00;10.68;;;7.00;;
23474;SDS011;11910;52.086;21.066;2023-08-06T12:27:33;12.07;;;7.70;;
23474;SDS011;11910;52.086;21.066;2023-08-06T12:30:02;7.35;;;6.50;;
23474;SDS011;11910;52.086;21.066;2023-08-06T12:32:31;9.68;;;7.22;;
23474;SDS011;11910;52.086;21.066;2023-08-06T12:34:58;8.35;;;6.90;;
23474;SDS011;11910;52.086;21.066;2023-08-06T12:37:24;11.07;;;6.88;;
23474;SDS011;11910;52.086;21.066;2023-08-06T12:39:50;8.60;;;6.70;;
23474;SDS011;11910;52.086;21.066;2023-08-06T12:42:15;10.63;;;6.53;;
23474;SDS011;11910;52.086;21.066;2023-08-06T12:44:41;11.20;;;6.82;;
23474;SDS011;11910;52.086;21.066;2023-08-06T12:47:07;11.70;;;6.78;;
23474;SDS011;11910;52.086;21.066;2023-08-06T12:49:33;9.02;;;6.78;;
23474;SDS011;11910;52.086;21.066;2023-08-06T12:51:58;10.15;;;6.68;;
23474;SDS011;11910;52.086;21.066;2023-08-06T12:54:27;9.23;;;6.35;;
23474;SDS011;11910;52.086;21.066;2023-08-06T12:56:53;9.00;;;6.20;;
23474;SDS011;11910;52.086;21.066;2023-08-06T12:59:19;7.88;;;5.97;;
23474;SDS011;11910;52.086;21.066;2023-08-06T13:01:44;7.10;;;5.75;;
23474;SDS011;11910;52.086;21.066;2023-08-06T13:04:11;7.38;;;5.80;;
23474;SDS011;11910;52.086;21.066;2023-08-06T13:06:37;9.98;;;7.13;;
23474;SDS011;11910;52.086;21.066;2023-08-06T13:09:07;11.38;;;6.60;;
23474;SDS011;11910;52.086;21.066;2023-08-06T13:11:33;9.13;;;6.40;;
23474;SDS011;11910;52.086;21.066;2023-08-06T13:14:09;12.23;;;7.15;;
23474;SDS011;11910;52.086;21.066;2023-08-06T13:16:37;7.03;;;6.30;;
23474;SDS011;11910;52.086;21.066;2023-08-06T13:19:03;8.20;;;6.50;;
23474;SDS011;11910;52.086;21.066;2023-08-06T13:23:59;7.43;;;6.22;;
23474;SDS011;11910;52.086;21.066;2023-08-06T13:26:29;8.23;;;5.70;;
23474;SDS011;11910;52.086;21.066;2023-08-06T13:28:55;7.63;;;6.05;;
23474;SDS011;11910;52.086;21.066;2023-08-06T13:31:21;8.70;;;5.90;;
23474;SDS011;11910;52.086;21.066;2023-08-06T13:33:47;8.65;;;6.75;;
23474;SDS011;11910;52.086;21.066;2023-08-06T13:36:14;7.72;;;6.72;;
23474;SDS011;11910;52.086;21.066;2023-08-06T13:38:40;8.77;;;6.35;;
23474;SDS011;11910;52.086;21.066;2023-08-06T13:41:06;7.75;;;6.97;;
23474;SDS011;11910;52.086;21.066;2023-08-06T13:43:32;7.63;;;6.70;;
23474;SDS011;11910;52.086;21.066;2023-08-06T13:45:57;7.63;;;6.88;;
23474;SDS011;11910;52.086;21.066;2023-08-06T13:48:23;7.88;;;7.05;;
23474;SDS011;11910;52.086;21.066;2023-08-06T13:50:48;7.28;;;6.53;;
23474;SDS011;11910;52.086;21.066;2023-08-06T13:53:14;8.27;;;6.70;;
23474;SDS011;11910;52.086;21.066;2023-08-06T13:55:40;8.10;;;6.90;;
23474;SDS011;11910;52.086;21.066;2023-08-06T13:58:05;7.55;;;6.85;;
23474;SDS011;11910;52.086;21.066;2023-08-06T14:00:31;7.30;;;6.60;;
23474;SDS011;11910;52.086;21.066;2023-08-06T14:02:56;8.43;;;6.90;;
23474;SDS011;11910;52.086;21.066;2023-08-06T14:05:22;7.15;;;6.53;;
23474;SDS011;11910;52.086;21.066;2023-08-06T14:07:47;6.85;;;6.15;;
23474;SDS011;11910;52.086;21.066;2023-08-06T14:10:13;8.88;;;6.18;;
23474;SDS011;11910;52.086;21.066;2023-08-06T14:12:40;6.32;;;5.53;;
23474;SDS011;11910;52.086;21.066;2023-08-06T14:15:05;6.28;;;5.68;;
23474;SDS011;11910;52.086;21.066;2023-08-06T14:17:31;5.97;;;5.47;;
23474;SDS011;11910;52.086;21.066;2023-08-06T14:19:57;6.07;;;5.47;;